sensor_id;sensor_type;location;lat;lon;timestamp;temperature;humidity
38568;DHT22;24338;48.280;10.970;2023-02-28T00:00:37;-1.60;99.90
38568;DHT22;24338;48.280;10.970;2023-02-28T00:03:05;-1.70;99.90
38568;DHT22;24338;48.280;10.970;2023-02-28T00:05:32;-1.70;99.90
38568;DHT22;24338;48.280;10.970;2023-02-28T00:07:59;-1.70;99.90
38568;DHT22;24338;48.280;10.970;2023-02-28T00:10:29;-1.70;99.90
38568;DHT22;24338;48.280;10.970;2023-02-28T00:13:00;-1.80;99.90
38568;DHT22;24338;48.280;10.970;2023-02-28T00:15:27;-1.80;99.90
38568;DHT22;24338;48.280;10.970;2023-02-28T00:17:54;-1.80;99.90
38568;DHT22;24338;48.280;10.970;2023-02-28T00:20:21;-1.90;99.90
38568;DHT22;24338;48.280;10.970;2023-02-28T00:22:50;-1.90;99.90
38568;DHT22;24338;48.280;10.970;2023-02-28T00:25:20;-1.80;99.90
38568;DHT22;24338;48.280;10.970;2023-02-28T00:27:47;-1.90;99.90
38568;DHT22;24338;48.280;10.970;2023-02-28T00:30:20;-1.90;99.90
38568;DHT22;24338;48.280;10.970;2023-02-28T00:32:47;-1.90;99.90
38568;DHT22;24338;48.280;10.970;2023-02-28T00:35:14;-1.90;99.90
38568;DHT22;24338;48.280;10.970;2023-02-28T00:37:42;-1.90;99.90
38568;DHT22;24338;48.280;10.970;2023-02-28T00:40:09;-1.90;99.90
38568;DHT22;24338;48.280;10.970;2023-02-28T00:42:38;-2.00;99.90
38568;DHT22;24338;48.280;10.970;2023-02-28T00:45:05;-2.00;99.90
38568;DHT22;24338;48.280;10.970;2023-02-28T00:47:32;-2.00;99.90
38568;DHT22;24338;48.280;10.970;2023-02-28T00:50:00;-2.00;99.90
38568;DHT22;24338;48.280;10.970;2023-02-28T00:52:27;-2.00;99.90
38568;DHT22;24338;48.280;10.970;2023-02-28T00:54:54;-2.00;99.90
38568;DHT22;24338;48.280;10.970;2023-02-28T00:57:20;-2.10;99.90
38568;DHT22;24338;48.280;10.970;2023-02-28T00:59:47;-2.10;99.90
38568;DHT22;24338;48.280;10.970;2023-02-28T01:02:14;-2.10;99.90
38568;DHT22;24338;48.280;10.970;2023-02-28T01:04:41;-2.10;99.90
38568;DHT22;24338;48.280;10.970;2023-02-28T01:07:09;-2.10;99.90
38568;DHT22;24338;48.280;10.970;2023-02-28T01:09:35;-2.20;99.90
38568;DHT22;24338;48.280;10.970;2023-02-28T01:12:02;-2.20;99.90
38568;DHT22;24338;48.280;10.970;2023-02-28T01:14:29;-2.30;99.90
38568;DHT22;24338;48.280;10.970;2023-02-28T01:16:56;-2.30;99.90
38568;DHT22;24338;48.280;10.970;2023-02-28T01:19:23;-2.30;99.90
38568;DHT22;24338;48.280;10.970;2023-02-28T01:21:50;-2.40;99.90
38568;DHT22;24338;48.280;10.970;2023-02-28T01:24:17;-2.40;99.90
38568;DHT22;24338;48.280;10.970;2023-02-28T01:26:44;-2.40;99.90
38568;DHT22;24338;48.280;10.970;2023-02-28T01:29:10;-2.40;99.90
38568;DHT22;24338;48.280;10.970;2023-02-28T01:31:37;-2.40;99.90
38568;DHT22;24338;48.280;10.970;2023-02-28T01:34:04;-2.50;99.90
38568;DHT22;24338;48.280;10.970;2023-02-28T01:36:31;-2.50;99.90
38568;DHT22;24338;48.280;10.970;2023-02-28T01:38:58;-2.50;99.90
38568;DHT22;24338;48.280;10.970;2023-02-28T01:41:30;-2.50;99.90
38568;DHT22;24338;48.280;10.970;2023-02-28T01:44:04;-2.50;99.90
38568;DHT22;24338;48.280;10.970;2023-02-28T01:46:34;-2.50;99.90
38568;DHT22;24338;48.280;10.970;2023-02-28T01:49:12;-2.50;99.90
38568;DHT22;24338;48.280;10.970;2023-02-28T01:51:46;-2.60;99.90
38568;DHT22;24338;48.280;10.970;2023-02-28T01:54:22;-2.60;99.90
38568;DHT22;24338;48.280;10.970;2023-02-28T01:56:59;-2.60;99.90
38568;DHT22;24338;48.280;10.970;2023-02-28T01:59:35;-2.60;99.90
38568;DHT22;24338;48.280;10.970;2023-02-28T02:02:04;-2.60;99.90
38568;DHT22;24338;48.280;10.970;2023-02-28T02:04:38;-2.60;99.90
38568;DHT22;24338;48.280;10.970;2023-02-28T02:07:07;-2.60;99.90
38568;DHT22;24338;48.280;10.970;2023-02-28T02:09:34;-2.60;99.90
38568;DHT22;24338;48.280;10.970;2023-02-28T02:12:21;-2.60;99.90
38568;DHT22;24338;48.280;10.970;2023-02-28T02:20:16;-2.60;99.90
38568;DHT22;24338;48.280;10.970;2023-02-28T02:25:44;-2.60;99.90
38568;DHT22;24338;48.280;10.970;2023-02-28T02:28:35;-2.60;99.90
38568;DHT22;24338;48.280;10.970;2023-02-28T02:36:43;-2.70;99.90
38568;DHT22;24338;48.280;10.970;2023-02-28T02:42:23;-2.70;99.90
38568;DHT22;24338;48.280;10.970;2023-02-28T02:45:04;-2.80;99.90
38568;DHT22;24338;48.280;10.970;2023-02-28T02:47:33;-2.80;99.90
38568;DHT22;24338;48.280;10.970;2023-02-28T02:50:05;-2.80;99.90
38568;DHT22;24338;48.280;10.970;2023-02-28T02:52:43;-2.80;99.90
38568;DHT22;24338;48.280;10.970;2023-02-28T02:55:13;-2.80;99.90
38568;DHT22;24338;48.280;10.970;2023-02-28T02:57:50;-2.80;99.90
38568;DHT22;24338;48.280;10.970;2023-02-28T03:00:20;-2.80;99.90
38568;DHT22;24338;48.280;10.970;2023-02-28T03:02:51;-2.80;99.90
38568;DHT22;24338;48.280;10.970;2023-02-28T03:05:28;-2.80;99.90
38568;DHT22;24338;48.280;10.970;2023-02-28T03:07:56;-2.80;99.90
38568;DHT22;24338;48.280;10.970;2023-02-28T03:10:34;-2.80;99.90
38568;DHT22;24338;48.280;10.970;2023-02-28T03:22:54;-2.90;99.90
38568;DHT22;24338;48.280;10.970;2023-02-28T03:25:22;-2.90;99.90
38568;DHT22;24338;48.280;10.970;2023-02-28T03:36:01;-2.80;99.90
38568;DHT22;24338;48.280;10.970;2023-02-28T03:38:38;-2.70;99.90
38568;DHT22;24338;48.280;10.970;2023-02-28T03:41:23;-2.70;99.90
38568;DHT22;24338;48.280;10.970;2023-02-28T03:43:54;-2.70;99.90
38568;DHT22;24338;48.280;10.970;2023-02-28T03:46:24;-2.70;99.90
38568;DHT22;24338;48.280;10.970;2023-02-28T03:48:57;-2.60;99.90
38568;DHT22;24338;48.280;10.970;2023-02-28T03:51:28;-2.60;99.90
38568;DHT22;24338;48.280;10.970;2023-02-28T03:54:09;-2.60;99.90
38568;DHT22;24338;48.280;10.970;2023-02-28T03:56:45;-2.60;99.90
38568;DHT22;24338;48.280;10.970;2023-02-28T03:59:29;-2.50;99.90
38568;DHT22;24338;48.280;10.970;2023-02-28T04:01:57;-2.50;99.90
38568;DHT22;24338;48.280;10.970;2023-02-28T04:04:25;-2.50;99.90
38568;DHT22;24338;48.280;10.970;2023-02-28T04:06:53;-2.40;99.90
38568;DHT22;24338;48.280;10.970;2023-02-28T04:09:27;-2.40;99.90
38568;DHT22;24338;48.280;10.970;2023-02-28T04:11:54;-2.40;99.90
38568;DHT22;24338;48.280;10.970;2023-02-28T04:14:23;-2.40;99.90
38568;DHT22;24338;48.280;10.970;2023-02-28T04:16:50;-2.40;99.90
38568;DHT22;24338;48.280;10.970;2023-02-28T04:19:18;-2.30;99.90
38568;DHT22;24338;48.280;10.970;2023-02-28T04:21:48;-2.30;99.90
38568;DHT22;24338;48.280;10.970;2023-02-28T04:24:18;-2.30;99.90
38568;DHT22;24338;48.280;10.970;2023-02-28T04:29:17;-2.30;99.90
38568;DHT22;24338;48.280;10.970;2023-02-28T04:31:44;-2.20;99.90
38568;DHT22;24338;48.280;10.970;2023-02-28T04:34:11;-2.20;99.90
38568;DHT22;24338;48.280;10.970;2023-02-28T04:36:38;-2.20;99.90
38568;DHT22;24338;48.280;10.970;2023-02-28T04:39:05;-2.20;99.90
38568;DHT22;24338;48.280;10.970;2023-02-28T04:41:32;-2.20;99.90
38568;DHT22;24338;48.280;10.970;2023-02-28T04:44:00;-2.20;99.90
38568;DHT22;24338;48.280;10.970;2023-02-28T04:46:26;-2.20;99.90
38568;DHT22;24338;48.280;10.970;2023-02-28T04:48:53;-2.20;99.90
38568;DHT22;24338;48.280;10.970;2023-02-28T04:51:21;-2.20;99.90
38568;DHT22;24338;48.280;10.970;2023-02-28T04:53:48;-2.20;99.90
38568;DHT22;24338;48.280;10.970;2023-02-28T04:56:16;-2.20;99.90
38568;DHT22;24338;48.280;10.970;2023-02-28T04:58:44;-2.20;99.90
38568;DHT22;24338;48.280;10.970;2023-02-28T05:03:51;-2.20;99.90
38568;DHT22;24338;48.280;10.970;2023-02-28T05:06:19;-2.20;99.90
38568;DHT22;24338;48.280;10.970;2023-02-28T05:08:47;-2.20;99.90
38568;DHT22;24338;48.280;10.970;2023-02-28T05:13:46;-2.10;99.90
38568;DHT22;24338;48.280;10.970;2023-02-28T05:16:13;-2.10;99.90
38568;DHT22;24338;48.280;10.970;2023-02-28T05:18:41;-2.20;99.90
38568;DHT22;24338;48.280;10.970;2023-02-28T05:23:53;-2.10;99.90
38568;DHT22;24338;48.280;10.970;2023-02-28T05:26:20;-2.10;99.90
38568;DHT22;24338;48.280;10.970;2023-02-28T05:28:47;-2.10;99.90
38568;DHT22;24338;48.280;10.970;2023-02-28T05:31:16;-2.10;99.90
38568;DHT22;24338;48.280;10.970;2023-02-28T05:33:43;-2.10;99.90
38568;DHT22;24338;48.280;10.970;2023-02-28T05:36:09;-2.10;99.90
38568;DHT22;24338;48.280;10.970;2023-02-28T05:38:36;-2.10;99.90
38568;DHT22;24338;48.280;10.970;2023-02-28T05:41:08;-2.10;99.90
38568;DHT22;24338;48.280;10.970;2023-02-28T05:43:36;-2.10;99.90
38568;DHT22;24338;48.280;10.970;2023-02-28T05:46:08;-2.10;99.90
38568;DHT22;24338;48.280;10.970;2023-02-28T05:48:36;-2.10;99.90
38568;DHT22;24338;48.280;10.970;2023-02-28T05:51:04;-2.10;99.90
38568;DHT22;24338;48.280;10.970;2023-02-28T05:53:31;-2.10;99.90
38568;DHT22;24338;48.280;10.970;2023-02-28T05:55:59;-2.10;99.90
38568;DHT22;24338;48.280;10.970;2023-02-28T05:58:26;-2.10;99.90
38568;DHT22;24338;48.280;10.970;2023-02-28T06:01:18;-2.10;99.90
38568;DHT22;24338;48.280;10.970;2023-02-28T06:03:45;-2.10;99.90
38568;DHT22;24338;48.280;10.970;2023-02-28T06:06:12;-2.10;99.90
38568;DHT22;24338;48.280;10.970;2023-02-28T06:08:38;-2.10;99.90
38568;DHT22;24338;48.280;10.970;2023-02-28T06:11:05;-2.10;99.90
38568;DHT22;24338;48.280;10.970;2023-02-28T06:13:34;-2.10;99.90
38568;DHT22;24338;48.280;10.970;2023-02-28T06:16:01;-2.10;99.90
38568;DHT22;24338;48.280;10.970;2023-02-28T06:18:27;-2.10;99.90
38568;DHT22;24338;48.280;10.970;2023-02-28T06:20:54;-2.10;99.90
38568;DHT22;24338;48.280;10.970;2023-02-28T06:23:22;-2.10;99.90
38568;DHT22;24338;48.280;10.970;2023-02-28T06:25:49;-2.10;99.90
38568;DHT22;24338;48.280;10.970;2023-02-28T06:28:18;-2.10;99.90
38568;DHT22;24338;48.280;10.970;2023-02-28T06:30:45;-2.10;99.90
38568;DHT22;24338;48.280;10.970;2023-02-28T06:33:12;-2.10;99.90
38568;DHT22;24338;48.280;10.970;2023-02-28T06:35:39;-2.10;99.90
38568;DHT22;24338;48.280;10.970;2023-02-28T06:38:06;-2.10;99.90
38568;DHT22;24338;48.280;10.970;2023-02-28T06:40:33;-2.10;99.90
38568;DHT22;24338;48.280;10.970;2023-02-28T06:43:02;-2.00;99.90
38568;DHT22;24338;48.280;10.970;2023-02-28T06:45:29;-2.00;99.90
38568;DHT22;24338;48.280;10.970;2023-02-28T06:47:55;-2.00;99.90
38568;DHT22;24338;48.280;10.970;2023-02-28T06:50:22;-2.00;99.90
38568;DHT22;24338;48.280;10.970;2023-02-28T06:52:49;-2.00;99.90
38568;DHT22;24338;48.280;10.970;2023-02-28T06:55:20;-1.90;99.90
38568;DHT22;24338;48.280;10.970;2023-02-28T06:57:47;-1.90;99.90
38568;DHT22;24338;48.280;10.970;2023-02-28T07:00:14;-1.90;99.90
38568;DHT22;24338;48.280;10.970;2023-02-28T07:02:41;-1.90;99.90
38568;DHT22;24338;48.280;10.970;2023-02-28T07:05:08;-1.90;99.90
38568;DHT22;24338;48.280;10.970;2023-02-28T07:07:35;-1.90;99.90
38568;DHT22;24338;48.280;10.970;2023-02-28T07:10:04;-1.90;99.90
38568;DHT22;24338;48.280;10.970;2023-02-28T07:12:32;-1.90;99.90
38568;DHT22;24338;48.280;10.970;2023-02-28T07:14:58;-1.90;99.90
38568;DHT22;24338;48.280;10.970;2023-02-28T07:17:25;-1.90;99.90
38568;DHT22;24338;48.280;10.970;2023-02-28T07:19:52;-2.00;99.90
38568;DHT22;24338;48.280;10.970;2023-02-28T07:22:18;-1.90;99.90
38568;DHT22;24338;48.280;10.970;2023-02-28T07:24:45;-1.90;99.90
38568;DHT22;24338;48.280;10.970;2023-02-28T07:27:12;-1.90;99.90
38568;DHT22;24338;48.280;10.970;2023-02-28T07:29:39;-2.00;99.90
38568;DHT22;24338;48.280;10.970;2023-02-28T07:32:05;-2.00;99.90
38568;DHT22;24338;48.280;10.970;2023-02-28T07:34:35;-1.90;99.90
38568;DHT22;24338;48.280;10.970;2023-02-28T07:37:02;-1.90;99.90
38568;DHT22;24338;48.280;10.970;2023-02-28T07:39:30;-1.90;99.90
38568;DHT22;24338;48.280;10.970;2023-02-28T07:41:57;-1.90;99.90
38568;DHT22;24338;48.280;10.970;2023-02-28T07:44:23;-1.80;99.90
38568;DHT22;24338;48.280;10.970;2023-02-28T07:46:50;-1.70;99.90
38568;DHT22;24338;48.280;10.970;2023-02-28T07:49:17;-1.70;99.90
38568;DHT22;24338;48.280;10.970;2023-02-28T07:51:44;-1.70;99.90
38568;DHT22;24338;48.280;10.970;2023-02-28T07:54:11;-1.60;99.90
38568;DHT22;24338;48.280;10.970;2023-02-28T07:56:37;-1.60;99.90
38568;DHT22;24338;48.280;10.970;2023-02-28T07:59:04;-1.60;99.90
38568;DHT22;24338;48.280;10.970;2023-02-28T08:01:31;-1.60;99.90
38568;DHT22;24338;48.280;10.970;2023-02-28T08:03:58;-1.70;99.90
38568;DHT22;24338;48.280;10.970;2023-02-28T08:06:25;-1.60;99.90
38568;DHT22;24338;48.280;10.970;2023-02-28T08:08:53;-1.60;99.90
38568;DHT22;24338;48.280;10.970;2023-02-28T08:11:20;-1.70;99.90
38568;DHT22;24338;48.280;10.970;2023-02-28T08:13:50;-1.60;99.90
38568;DHT22;24338;48.280;10.970;2023-02-28T08:16:17;-1.60;99.90
38568;DHT22;24338;48.280;10.970;2023-02-28T08:18:52;-1.50;99.90
38568;DHT22;24338;48.280;10.970;2023-02-28T08:21:20;-1.40;99.90
38568;DHT22;24338;48.280;10.970;2023-02-28T08:23:50;-1.30;99.90
38568;DHT22;24338;48.280;10.970;2023-02-28T08:26:18;-1.40;99.90
38568;DHT22;24338;48.280;10.970;2023-02-28T08:28:45;-1.40;99.90
38568;DHT22;24338;48.280;10.970;2023-02-28T08:31:14;-1.40;99.90
38568;DHT22;24338;48.280;10.970;2023-02-28T08:33:42;-1.30;99.90
38568;DHT22;24338;48.280;10.970;2023-02-28T08:36:11;-1.30;99.90
38568;DHT22;24338;48.280;10.970;2023-02-28T08:38:40;-1.20;99.90
38568;DHT22;24338;48.280;10.970;2023-02-28T08:41:10;-1.30;99.90
38568;DHT22;24338;48.280;10.970;2023-02-28T08:43:38;-1.30;99.90
38568;DHT22;24338;48.280;10.970;2023-02-28T08:46:06;-1.30;99.90
38568;DHT22;24338;48.280;10.970;2023-02-28T08:48:35;-1.30;99.90
38568;DHT22;24338;48.280;10.970;2023-02-28T08:51:07;-1.10;99.90
38568;DHT22;24338;48.280;10.970;2023-02-28T08:53:36;-1.00;99.90
38568;DHT22;24338;48.280;10.970;2023-02-28T08:56:08;-1.00;99.90
38568;DHT22;24338;48.280;10.970;2023-02-28T08:58:35;-1.20;99.90
38568;DHT22;24338;48.280;10.970;2023-02-28T09:01:31;-1.00;99.90
38568;DHT22;24338;48.280;10.970;2023-02-28T09:03:59;-0.80;99.90
38568;DHT22;24338;48.280;10.970;2023-02-28T09:06:27;-0.80;99.90
38568;DHT22;24338;48.280;10.970;2023-02-28T09:08:58;-0.80;99.90
38568;DHT22;24338;48.280;10.970;2023-02-28T09:11:26;-0.80;99.90
38568;DHT22;24338;48.280;10.970;2023-02-28T09:13:53;-0.80;99.90
38568;DHT22;24338;48.280;10.970;2023-02-28T09:16:21;-0.70;99.90
38568;DHT22;24338;48.280;10.970;2023-02-28T09:18:48;-0.50;99.90
38568;DHT22;24338;48.280;10.970;2023-02-28T09:21:17;-0.30;99.90
38568;DHT22;24338;48.280;10.970;2023-02-28T09:23:45;-0.30;99.90
38568;DHT22;24338;48.280;10.970;2023-02-28T09:26:18;-0.40;99.90
38568;DHT22;24338;48.280;10.970;2023-02-28T09:28:46;-0.30;99.90
38568;DHT22;24338;48.280;10.970;2023-02-28T09:31:15;-0.20;99.90
38568;DHT22;24338;48.280;10.970;2023-02-28T09:33:42;-0.20;99.90
38568;DHT22;24338;48.280;10.970;2023-02-28T09:36:09;-0.30;99.90
38568;DHT22;24338;48.280;10.970;2023-02-28T09:38:36;-0.50;99.90
38568;DHT22;24338;48.280;10.970;2023-02-28T09:41:10;-0.50;99.90
38568;DHT22;24338;48.280;10.970;2023-02-28T09:43:41;-0.50;99.90
38568;DHT22;24338;48.280;10.970;2023-02-28T09:48:56;-0.40;99.90
38568;DHT22;24338;48.280;10.970;2023-02-28T09:53:55;-0.40;99.90
38568;DHT22;24338;48.280;10.970;2023-02-28T09:56:37;-0.40;99.90
38568;DHT22;24338;48.280;10.970;2023-02-28T10:05:33;-0.10;99.90
38568;DHT22;24338;48.280;10.970;2023-02-28T10:08:14;0.20;99.90
38568;DHT22;24338;48.280;10.970;2023-02-28T10:10:45;0.20;99.90
38568;DHT22;24338;48.280;10.970;2023-02-28T10:13:35;0.40;99.90
38568;DHT22;24338;48.280;10.970;2023-02-28T10:16:07;0.70;99.90
38568;DHT22;24338;48.280;10.970;2023-02-28T10:18:48;0.80;99.90
38568;DHT22;24338;48.280;10.970;2023-02-28T10:21:27;0.90;99.90
38568;DHT22;24338;48.280;10.970;2023-02-28T10:27:23;0.90;99.90
38568;DHT22;24338;48.280;10.970;2023-02-28T10:29:55;1.00;99.90
38568;DHT22;24338;48.280;10.970;2023-02-28T10:32:23;1.00;99.90
38568;DHT22;24338;48.280;10.970;2023-02-28T10:34:57;1.10;99.90
38568;DHT22;24338;48.280;10.970;2023-02-28T10:37:24;1.10;99.90
38568;DHT22;24338;48.280;10.970;2023-02-28T10:39:51;1.10;99.90
38568;DHT22;24338;48.280;10.970;2023-02-28T10:42:28;0.90;99.90
38568;DHT22;24338;48.280;10.970;2023-02-28T10:45:16;1.10;99.90
38568;DHT22;24338;48.280;10.970;2023-02-28T10:47:59;1.20;99.90
38568;DHT22;24338;48.280;10.970;2023-02-28T10:50:43;1.40;99.90
38568;DHT22;24338;48.280;10.970;2023-02-28T10:54:00;1.30;99.90
38568;DHT22;24338;48.280;10.970;2023-02-28T10:56:26;1.20;99.90
38568;DHT22;24338;48.280;10.970;2023-02-28T11:03:59;1.20;99.90
38568;DHT22;24338;48.280;10.970;2023-02-28T11:06:30;1.00;99.90
38568;DHT22;24338;48.280;10.970;2023-02-28T11:09:03;1.10;99.90
38568;DHT22;24338;48.280;10.970;2023-02-28T11:11:42;1.10;99.90
38568;DHT22;24338;48.280;10.970;2023-02-28T11:14:35;1.00;99.90
38568;DHT22;24338;48.280;10.970;2023-02-28T11:17:21;1.10;99.90
38568;DHT22;24338;48.280;10.970;2023-02-28T11:20:06;1.40;99.90
38568;DHT22;24338;48.280;10.970;2023-02-28T11:22:37;1.60;99.90
38568;DHT22;24338;48.280;10.970;2023-02-28T11:25:31;1.90;99.90
38568;DHT22;24338;48.280;10.970;2023-02-28T11:28:00;2.20;99.90
38568;DHT22;24338;48.280;10.970;2023-02-28T11:32:58;2.30;99.90
38568;DHT22;24338;48.280;10.970;2023-02-28T11:35:34;2.40;99.90
38568;DHT22;24338;48.280;10.970;2023-02-28T11:38:04;2.40;99.90
38568;DHT22;24338;48.280;10.970;2023-02-28T11:46:18;2.50;99.90
38568;DHT22;24338;48.280;10.970;2023-02-28T11:49:51;2.60;99.90
38568;DHT22;24338;48.280;10.970;2023-02-28T11:51:47;2.60;99.90
38568;DHT22;24338;48.280;10.970;2023-02-28T11:54:33;2.70;99.90
38568;DHT22;24338;48.280;10.970;2023-02-28T12:00:19;2.30;99.90
38568;DHT22;24338;48.280;10.970;2023-02-28T12:05:56;2.60;99.90
38568;DHT22;24338;48.280;10.970;2023-02-28T12:11:38;3.00;99.90
38568;DHT22;24338;48.280;10.970;2023-02-28T12:16:58;3.30;99.90
38568;DHT22;24338;48.280;10.970;2023-02-28T12:22:27;3.00;99.90
38568;DHT22;24338;48.280;10.970;2023-02-28T12:27:43;3.20;99.90
38568;DHT22;24338;48.280;10.970;2023-02-28T12:30:24;3.30;99.90
38568;DHT22;24338;48.280;10.970;2023-02-28T12:35:47;3.50;99.90
38568;DHT22;24338;48.280;10.970;2023-02-28T12:38:27;3.70;99.90
38568;DHT22;24338;48.280;10.970;2023-02-28T12:43:39;3.70;99.90
38568;DHT22;24338;48.280;10.970;2023-02-28T12:46:09;3.80;99.90
38568;DHT22;24338;48.280;10.970;2023-02-28T12:48:42;3.90;99.90
38568;DHT22;24338;48.280;10.970;2023-02-28T12:51:10;3.80;99.90
38568;DHT22;24338;48.280;10.970;2023-02-28T12:53:52;3.80;99.90
38568;DHT22;24338;48.280;10.970;2023-02-28T13:02:32;3.80;99.90
38568;DHT22;24338;48.280;10.970;2023-02-28T13:10:39;4.00;99.90
38568;DHT22;24338;48.280;10.970;2023-02-28T13:13:11;3.80;99.90
38568;DHT22;24338;48.280;10.970;2023-02-28T13:15:39;3.80;99.90
38568;DHT22;24338;48.280;10.970;2023-02-28T13:20:56;4.10;99.90
38568;DHT22;24338;48.280;10.970;2023-02-28T13:23:40;4.10;99.90
38568;DHT22;24338;48.280;10.970;2023-02-28T13:26:07;4.20;99.90
38568;DHT22;24338;48.280;10.970;2023-02-28T13:34:39;4.70;99.90
38568;DHT22;24338;48.280;10.970;2023-02-28T13:39:58;5.00;99.90
38568;DHT22;24338;48.280;10.970;2023-02-28T13:42:34;4.90;99.90
38568;DHT22;24338;48.280;10.970;2023-02-28T13:48:00;5.00;99.90
38568;DHT22;24338;48.280;10.970;2023-02-28T13:55:53;4.50;99.90
38568;DHT22;24338;48.280;10.970;2023-02-28T13:58:46;4.50;99.90
38568;DHT22;24338;48.280;10.970;2023-02-28T14:06:49;4.70;99.90
38568;DHT22;24338;48.280;10.970;2023-02-28T14:09:27;4.80;99.90
38568;DHT22;24338;48.280;10.970;2023-02-28T14:11:55;4.80;99.90
38568;DHT22;24338;48.280;10.970;2023-02-28T14:17:16;4.80;99.90
38568;DHT22;24338;48.280;10.970;2023-02-28T14:19:45;4.80;99.90
38568;DHT22;24338;48.280;10.970;2023-02-28T14:31:17;4.60;99.90
38568;DHT22;24338;48.280;10.970;2023-02-28T14:36:50;4.60;99.90
38568;DHT22;24338;48.280;10.970;2023-02-28T14:39:27;4.60;99.90
38568;DHT22;24338;48.280;10.970;2023-02-28T14:41:57;4.60;99.90
38568;DHT22;24338;48.280;10.970;2023-02-28T14:44:36;4.60;99.90
38568;DHT22;24338;48.280;10.970;2023-02-28T14:47:03;4.60;99.90
38568;DHT22;24338;48.280;10.970;2023-02-28T14:49:36;4.40;99.90
38568;DHT22;24338;48.280;10.970;2023-02-28T14:52:14;4.20;99.90
38568;DHT22;24338;48.280;10.970;2023-02-28T14:54:43;4.40;99.90
38568;DHT22;24338;48.280;10.970;2023-02-28T14:57:31;4.40;99.90
38568;DHT22;24338;48.280;10.970;2023-02-28T15:00:28;4.40;99.90
38568;DHT22;24338;48.280;10.970;2023-02-28T15:02:57;4.50;99.90
38568;DHT22;24338;48.280;10.970;2023-02-28T15:05:28;4.30;99.90
38568;DHT22;24338;48.280;10.970;2023-02-28T15:08:12;4.10;99.90
38568;DHT22;24338;48.280;10.970;2023-02-28T15:10:54;4.10;99.90
38568;DHT22;24338;48.280;10.970;2023-02-28T15:13:22;4.10;99.90
38568;DHT22;24338;48.280;10.970;2023-02-28T15:18:43;4.20;99.90
38568;DHT22;24338;48.280;10.970;2023-02-28T15:21:17;4.20;99.90
38568;DHT22;24338;48.280;10.970;2023-02-28T15:23:49;4.10;99.90
38568;DHT22;24338;48.280;10.970;2023-02-28T15:26:20;4.20;99.90
38568;DHT22;24338;48.280;10.970;2023-02-28T15:28:52;4.10;99.90
38568;DHT22;24338;48.280;10.970;2023-02-28T15:31:35;4.00;99.90
38568;DHT22;24338;48.280;10.970;2023-02-28T15:34:42;4.00;99.90
38568;DHT22;24338;48.280;10.970;2023-02-28T15:38:02;3.90;99.90
38568;DHT22;24338;48.280;10.970;2023-02-28T15:43:31;3.80;99.90
38568;DHT22;24338;48.280;10.970;2023-02-28T15:46:12;3.70;99.90
38568;DHT22;24338;48.280;10.970;2023-02-28T15:48:53;3.50;99.90
38568;DHT22;24338;48.280;10.970;2023-02-28T15:51:34;3.40;99.90
38568;DHT22;24338;48.280;10.970;2023-02-28T15:54:06;3.30;99.90
38568;DHT22;24338;48.280;10.970;2023-02-28T15:56:40;3.30;99.90
38568;DHT22;24338;48.280;10.970;2023-02-28T15:59:17;3.10;99.90
38568;DHT22;24338;48.280;10.970;2023-02-28T16:01:44;3.10;99.90
38568;DHT22;24338;48.280;10.970;2023-02-28T16:04:18;3.00;99.90
38568;DHT22;24338;48.280;10.970;2023-02-28T16:09:28;3.00;99.90
38568;DHT22;24338;48.280;10.970;2023-02-28T16:12:01;2.90;99.90
38568;DHT22;24338;48.280;10.970;2023-02-28T16:14:29;2.90;99.90
38568;DHT22;24338;48.280;10.970;2023-02-28T16:17:04;2.80;99.90
38568;DHT22;24338;48.280;10.970;2023-02-28T16:19:32;2.70;99.90
38568;DHT22;24338;48.280;10.970;2023-02-28T16:22:00;2.60;99.90
38568;DHT22;24338;48.280;10.970;2023-02-28T16:24:27;2.50;99.90
38568;DHT22;24338;48.280;10.970;2023-02-28T16:26:55;2.50;99.90
38568;DHT22;24338;48.280;10.970;2023-02-28T16:29:33;2.40;99.90
38568;DHT22;24338;48.280;10.970;2023-02-28T16:32:01;2.30;99.90
38568;DHT22;24338;48.280;10.970;2023-02-28T16:34:30;2.30;99.90
38568;DHT22;24338;48.280;10.970;2023-02-28T16:36:57;2.20;99.90
38568;DHT22;24338;48.280;10.970;2023-02-28T16:39:25;2.10;99.90
38568;DHT22;24338;48.280;10.970;2023-02-28T16:41:54;2.10;99.90
38568;DHT22;24338;48.280;10.970;2023-02-28T16:44:29;2.00;99.90
38568;DHT22;24338;48.280;10.970;2023-02-28T16:47:03;2.00;99.90
38568;DHT22;24338;48.280;10.970;2023-02-28T16:49:30;1.90;99.90
38568;DHT22;24338;48.280;10.970;2023-02-28T16:51:57;1.80;99.90
38568;DHT22;24338;48.280;10.970;2023-02-28T16:54:24;1.80;99.90
38568;DHT22;24338;48.280;10.970;2023-02-28T16:56:51;1.70;99.90
38568;DHT22;24338;48.280;10.970;2023-02-28T16:59:24;1.60;99.90
38568;DHT22;24338;48.280;10.970;2023-02-28T17:01:53;1.60;99.90
38568;DHT22;24338;48.280;10.970;2023-02-28T17:04:20;1.50;99.90
38568;DHT22;24338;48.280;10.970;2023-02-28T17:06:48;1.50;99.90
38568;DHT22;24338;48.280;10.970;2023-02-28T17:09:17;1.40;99.90
38568;DHT22;24338;48.280;10.970;2023-02-28T17:11:44;1.30;99.90
38568;DHT22;24338;48.280;10.970;2023-02-28T17:14:12;1.30;99.90
38568;DHT22;24338;48.280;10.970;2023-02-28T17:16:39;1.20;99.90
38568;DHT22;24338;48.280;10.970;2023-02-28T17:19:11;1.20;99.90
38568;DHT22;24338;48.280;10.970;2023-02-28T17:21:38;1.10;99.90
38568;DHT22;24338;48.280;10.970;2023-02-28T17:24:05;1.00;99.90
38568;DHT22;24338;48.280;10.970;2023-02-28T17:26:32;1.00;99.90
38568;DHT22;24338;48.280;10.970;2023-02-28T17:28:59;1.00;99.90
38568;DHT22;24338;48.280;10.970;2023-02-28T17:31:27;0.90;99.90
38568;DHT22;24338;48.280;10.970;2023-02-28T17:33:54;0.80;99.90
38568;DHT22;24338;48.280;10.970;2023-02-28T17:36:24;0.80;99.90
38568;DHT22;24338;48.280;10.970;2023-02-28T17:38:53;0.70;99.90
38568;DHT22;24338;48.280;10.970;2023-02-28T17:41:21;0.70;99.90
38568;DHT22;24338;48.280;10.970;2023-02-28T17:43:48;0.70;99.90
38568;DHT22;24338;48.280;10.970;2023-02-28T17:46:22;0.60;99.90
38568;DHT22;24338;48.280;10.970;2023-02-28T17:48:50;0.60;99.90
38568;DHT22;24338;48.280;10.970;2023-02-28T17:51:19;0.60;99.90
38568;DHT22;24338;48.280;10.970;2023-02-28T17:53:47;0.50;99.90
38568;DHT22;24338;48.280;10.970;2023-02-28T17:56:22;0.40;99.90
38568;DHT22;24338;48.280;10.970;2023-02-28T17:58:51;0.40;99.90
38568;DHT22;24338;48.280;10.970;2023-02-28T18:01:19;0.40;99.90
38568;DHT22;24338;48.280;10.970;2023-02-28T18:03:47;0.30;99.90
38568;DHT22;24338;48.280;10.970;2023-02-28T18:06:30;0.30;99.90
38568;DHT22;24338;48.280;10.970;2023-02-28T18:09:00;0.20;99.90
38568;DHT22;24338;48.280;10.970;2023-02-28T18:11:26;0.20;99.90
38568;DHT22;24338;48.280;10.970;2023-02-28T18:14:09;0.20;99.90
38568;DHT22;24338;48.280;10.970;2023-02-28T18:16:35;0.10;99.90
38568;DHT22;24338;48.280;10.970;2023-02-28T18:19:03;0.10;99.90
38568;DHT22;24338;48.280;10.970;2023-02-28T18:21:29;0.10;99.90
38568;DHT22;24338;48.280;10.970;2023-02-28T18:23:57;0.00;99.90